createdAt,value
2023-03-24T00:01:17.444Z,13.20
2023-03-24T00:03:52.431Z,13.20
2023-03-24T00:06:22.732Z,13.10
2023-03-24T00:08:50.348Z,13.10
2023-03-24T00:11:19.510Z,13.10
2023-03-24T00:13:50.450Z,13.10
2023-03-24T00:16:19.593Z,13.00
2023-03-24T00:18:52.990Z,13.00
2023-03-24T00:21:25.182Z,13.00
2023-03-24T00:23:55.353Z,12.90
2023-03-24T00:26:25.266Z,12.90
2023-03-24T00:28:53.456Z,12.90
2023-03-24T00:31:20.744Z,12.80
2023-03-24T00:33:51.097Z,12.80
2023-03-24T00:36:22.127Z,12.70
2023-03-24T00:38:50.232Z,12.70
2023-03-24T00:41:20.166Z,12.70
2023-03-24T00:43:49.852Z,12.60
2023-03-24T00:46:27.703Z,12.60
2023-03-24T00:49:02.629Z,12.60
2023-03-24T00:51:39.588Z,12.50
2023-03-24T00:54:09.285Z,12.50
2023-03-24T00:56:40.798Z,12.50
2023-03-24T00:59:10.230Z,12.40
2023-03-24T01:01:40.975Z,12.40
2023-03-24T01:04:08.711Z,12.40
2023-03-24T01:06:40.022Z,12.30
2023-03-24T01:09:07.889Z,12.30
2023-03-24T01:11:40.047Z,12.30
2023-03-24T01:14:09.768Z,12.20
2023-03-24T01:16:37.472Z,12.20
2023-03-24T01:19:05.372Z,12.20
2023-03-24T01:21:35.261Z,12.20
2023-03-24T01:24:03.377Z,12.20
2023-03-24T01:26:31.213Z,12.20
2023-03-24T01:28:58.463Z,12.20
2023-03-24T01:31:26.223Z,12.10
2023-03-24T01:33:53.396Z,12.20
2023-03-24T01:36:20.550Z,12.20
2023-03-24T01:38:47.677Z,12.20
2023-03-24T01:41:14.863Z,12.10
2023-03-24T01:43:43.448Z,12.10
2023-03-24T01:46:22.470Z,12.10
2023-03-24T01:49:06.365Z,12.10
2023-03-24T01:51:39.245Z,12.10
2023-03-24T01:54:18.952Z,12.10
2023-03-24T01:56:55.581Z,12.10
2023-03-24T01:59:29.268Z,12.10
2023-03-24T02:02:03.431Z,12.10
2023-03-24T02:04:38.818Z,12.10
2023-03-24T02:07:16.072Z,12.10
2023-03-24T02:09:43.222Z,12.10
2023-03-24T02:12:10.539Z,12.10
2023-03-24T02:14:37.886Z,12.00
2023-03-24T02:17:23.435Z,12.00
2023-03-24T02:20:49.205Z,11.90
2023-03-24T02:23:50.125Z,11.90
2023-03-24T02:26:35.183Z,11.80
2023-03-24T02:29:23.561Z,11.80
2023-03-24T02:32:30.784Z,11.70
2023-03-24T02:35:45.464Z,11.70
2023-03-24T02:39:18.044Z,11.70
2023-03-24T02:42:31.496Z,11.60
2023-03-24T02:45:35.866Z,11.60
2023-03-24T02:48:42.961Z,11.60
2023-03-24T02:51:18.603Z,11.60
2023-03-24T02:54:32.272Z,11.50
2023-03-24T02:57:36.202Z,11.50
2023-03-24T03:00:20.091Z,11.50
2023-03-24T03:03:14.296Z,11.50
2023-03-24T03:05:59.435Z,11.50
2023-03-24T03:08:32.499Z,11.50
2023-03-24T03:11:02.308Z,11.50
2023-03-24T03:13:39.325Z,11.50
2023-03-24T03:16:25.409Z,11.50
2023-03-24T03:18:58.172Z,11.50
2023-03-24T03:21:29.593Z,11.50
2023-03-24T03:24:02.424Z,11.50
2023-03-24T03:26:33.119Z,11.50
2023-03-24T03:29:09.459Z,11.50
2023-03-24T03:31:50.969Z,11.50
2023-03-24T03:34:42.263Z,11.50
2023-03-24T03:37:56.160Z,11.50
2023-03-24T03:40:59.447Z,11.50
2023-03-24T03:43:27.997Z,11.50
2023-03-24T03:45:56.125Z,11.50
2023-03-24T03:48:26.470Z,11.50
2023-03-24T03:51:10.327Z,11.50
2023-03-24T03:54:04.031Z,11.50
2023-03-24T03:56:34.208Z,11.50
2023-03-24T03:59:04.147Z,11.50
2023-03-24T04:01:37.308Z,11.50
2023-03-24T04:04:04.502Z,11.50
2023-03-24T04:07:15.061Z,11.50
2023-03-24T04:10:19.398Z,11.50
2023-03-24T04:13:01.200Z,11.50
2023-03-24T04:15:54.426Z,11.60
2023-03-24T04:18:33.756Z,11.60
2023-03-24T04:21:28.635Z,11.60
2023-03-24T04:24:27.539Z,11.60
2023-03-24T04:27:22.133Z,11.50
2023-03-24T04:30:16.463Z,11.50
2023-03-24T04:33:06.708Z,11.50
2023-03-24T04:35:44.718Z,11.50
2023-03-24T04:38:23.136Z,11.50
2023-03-24T04:40:55.623Z,11.50
2023-03-24T04:43:29.132Z,11.50
2023-03-24T04:45:58.014Z,11.50
2023-03-24T04:48:26.267Z,11.50
2023-03-24T04:51:03.746Z,11.50
2023-03-24T04:53:31.045Z,11.50
2023-03-24T04:56:12.950Z,11.60
2023-03-24T04:58:40.135Z,11.60
2023-03-24T05:01:09.155Z,11.60
2023-03-24T05:03:38.217Z,11.60
2023-03-24T05:06:05.959Z,11.50
2023-03-24T05:08:33.387Z,11.50
2023-03-24T05:11:00.551Z,11.50
2023-03-24T05:13:27.651Z,11.50
2023-03-24T05:15:55.064Z,11.50
2023-03-24T05:18:22.282Z,11.60
2023-03-24T05:20:49.548Z,11.50
2023-03-24T05:23:17.106Z,11.50
2023-03-24T05:25:46.859Z,11.50
2023-03-24T05:28:14.166Z,11.50
2023-03-24T05:30:41.432Z,11.40
2023-03-24T05:33:08.645Z,11.50
2023-03-24T05:35:36.031Z,11.40
2023-03-24T05:38:03.144Z,11.40
2023-03-24T05:40:30.260Z,11.40
2023-03-24T05:42:57.400Z,11.40
2023-03-24T05:45:25.454Z,11.50
2023-03-24T05:47:52.693Z,11.50
2023-03-24T05:50:21.149Z,11.50
2023-03-24T05:52:48.240Z,11.60
2023-03-24T05:55:16.136Z,11.60
2023-03-24T05:57:43.583Z,11.70
2023-03-24T06:00:16.822Z,11.70
2023-03-24T06:02:46.485Z,11.70
2023-03-24T06:05:14.086Z,11.80
2023-03-24T06:07:44.539Z,11.80
2023-03-24T06:10:14.427Z,11.90
2023-03-24T06:12:42.781Z,12.00
2023-03-24T06:15:10.994Z,12.10
2023-03-24T06:17:38.445Z,12.20
2023-03-24T06:20:13.971Z,12.30
2023-03-24T06:22:42.651Z,12.30
2023-03-24T06:25:11.627Z,12.40
2023-03-24T06:27:42.569Z,12.60
2023-03-24T06:30:10.785Z,12.60
2023-03-24T06:32:38.497Z,12.80
2023-03-24T06:35:07.329Z,12.90
2023-03-24T06:37:34.437Z,12.90
2023-03-24T06:40:01.714Z,13.00
2023-03-24T06:42:28.869Z,13.10
2023-03-24T06:44:55.929Z,13.10
2023-03-24T06:47:23.104Z,13.20
2023-03-24T06:49:50.360Z,13.30
2023-03-24T06:52:17.432Z,13.40
2023-03-24T06:54:44.592Z,13.40
2023-03-24T06:57:11.962Z,13.40
2023-03-24T06:59:39.121Z,13.50
2023-03-24T07:02:06.548Z,13.60
2023-03-24T07:04:36.602Z,13.70
2023-03-24T07:07:19.574Z,13.80
2023-03-24T07:09:51.128Z,13.90
2023-03-24T07:12:18.309Z,14.00
2023-03-24T07:14:45.423Z,14.10
2023-03-24T07:17:12.561Z,14.30
2023-03-24T07:19:39.805Z,14.40
2023-03-24T07:22:08.408Z,14.40
2023-03-24T07:24:36.058Z,14.50
2023-03-24T07:27:04.035Z,14.50
2023-03-24T07:29:31.239Z,14.60
2023-03-24T07:31:58.918Z,14.70
2023-03-24T07:34:26.273Z,14.80
2023-03-24T07:36:53.467Z,14.90
2023-03-24T07:39:21.324Z,14.90
2023-03-24T07:41:48.441Z,15.00
2023-03-24T07:44:15.851Z,15.10
2023-03-24T07:46:43.208Z,15.20
2023-03-24T07:49:19.021Z,15.30
2023-03-24T07:51:47.154Z,15.30
2023-03-24T07:54:14.520Z,15.40
2023-03-24T07:56:42.102Z,15.50
2023-03-24T07:59:09.870Z,15.50
2023-03-24T08:01:38.576Z,15.60
2023-03-24T08:04:06.784Z,15.60
2023-03-24T08:06:34.868Z,15.60
2023-03-24T08:09:02.051Z,15.70
2023-03-24T08:11:29.204Z,15.70
2023-03-24T08:13:56.571Z,15.80
2023-03-24T08:16:24.834Z,15.80
2023-03-24T08:18:52.499Z,15.80
2023-03-24T08:21:19.674Z,15.80
2023-03-24T08:23:46.766Z,15.90
2023-03-24T08:26:13.859Z,15.90
2023-03-24T08:28:41.643Z,15.90
2023-03-24T08:31:09.144Z,15.90
2023-03-24T08:33:37.370Z,15.90
2023-03-24T08:36:06.714Z,15.90
2023-03-24T08:38:34.088Z,15.90
2023-03-24T08:41:06.941Z,16.00
2023-03-24T08:43:37.497Z,16.00
2023-03-24T08:46:10.561Z,16.10
2023-03-24T08:48:41.168Z,16.20
2023-03-24T08:51:17.523Z,16.30
2023-03-24T08:53:44.705Z,16.50
2023-03-24T08:56:12.038Z,16.50
2023-03-24T08:58:39.250Z,16.60
2023-03-24T09:01:07.681Z,16.60
2023-03-24T09:03:36.024Z,16.70
2023-03-24T09:06:03.296Z,16.80
2023-03-24T09:08:30.658Z,17.00
2023-03-24T09:11:00.800Z,17.20
2023-03-24T09:13:28.255Z,17.30
2023-03-24T09:16:02.301Z,17.50
2023-03-24T09:18:30.700Z,17.60
2023-03-24T09:20:57.850Z,17.70
2023-03-24T09:23:25.515Z,17.70
2023-03-24T09:25:56.719Z,17.80
2023-03-24T09:28:24.071Z,17.80
2023-03-24T09:30:56.215Z,17.80
2023-03-24T09:33:24.156Z,17.90
2023-03-24T09:36:00.381Z,17.90
2023-03-24T09:38:28.707Z,18.10
2023-03-24T09:41:01.573Z,18.20
2023-03-24T09:43:42.498Z,18.30
2023-03-24T09:46:23.927Z,18.30
2023-03-24T09:48:56.319Z,18.30
2023-03-24T09:51:32.701Z,18.40
2023-03-24T09:54:11.855Z,18.40
2023-03-24T09:56:45.023Z,18.50
2023-03-24T09:59:29.669Z,18.50
2023-03-24T10:01:57.939Z,18.50
2023-03-24T10:04:28.692Z,18.50
2023-03-24T10:07:26.768Z,18.50
2023-03-24T10:09:59.459Z,18.60
2023-03-24T10:12:39.453Z,18.80
2023-03-24T10:15:52.430Z,18.80
2023-03-24T10:18:53.884Z,18.90
2023-03-24T10:21:26.197Z,19.00
2023-03-24T10:24:30.081Z,19.10
2023-03-24T10:27:34.266Z,19.10
2023-03-24T10:30:12.336Z,19.30
2023-03-24T10:32:42.962Z,19.50
2023-03-24T10:35:43.787Z,19.60
2023-03-24T10:38:21.474Z,19.80
2023-03-24T10:40:49.595Z,19.80
2023-03-24T10:43:18.991Z,19.80
2023-03-24T10:45:52.042Z,19.80
2023-03-24T10:48:40.565Z,19.90
2023-03-24T10:51:20.008Z,19.90
2023-03-24T10:53:48.932Z,20.00
2023-03-24T10:56:38.417Z,20.20
2023-03-24T10:59:27.716Z,20.30
2023-03-24T11:02:23.890Z,20.20
2023-03-24T11:05:14.275Z,20.30
2023-03-24T11:07:48.953Z,20.30
2023-03-24T11:10:24.543Z,20.50
2023-03-24T11:13:33.103Z,20.60
2023-03-24T11:16:17.177Z,20.70
2023-03-24T11:19:19.273Z,20.60
2023-03-24T11:21:51.399Z,20.60
2023-03-24T11:24:20.982Z,20.50
2023-03-24T11:27:02.195Z,20.50
2023-03-24T11:29:33.934Z,20.60
2023-03-24T11:32:07.774Z,20.80
2023-03-24T11:34:42.414Z,21.00
2023-03-24T11:37:18.433Z,21.20
2023-03-24T11:40:07.181Z,21.30
2023-03-24T11:42:34.286Z,21.50
2023-03-24T11:45:03.875Z,21.70
2023-03-24T11:47:38.908Z,21.90
2023-03-24T11:50:11.897Z,22.10
2023-03-24T11:53:02.440Z,22.20
2023-03-24T11:55:53.629Z,22.40
2023-03-24T11:58:35.583Z,22.50
2023-03-24T12:01:21.252Z,22.50
2023-03-24T12:04:15.536Z,22.50
2023-03-24T12:07:28.608Z,22.60
2023-03-24T12:10:21.377Z,22.70
2023-03-24T12:13:29.959Z,22.60
2023-03-24T12:16:34.897Z,22.60
2023-03-24T12:19:51.772Z,22.70
2023-03-24T12:23:08.621Z,22.90
2023-03-24T12:25:54.695Z,23.00
2023-03-24T12:28:36.260Z,23.00
2023-03-24T12:31:30.382Z,23.00
2023-03-24T12:34:48.095Z,23.00
2023-03-24T12:37:31.905Z,22.90
2023-03-24T12:40:41.287Z,22.70
2023-03-24T12:43:45.455Z,22.60
2023-03-24T12:46:50.943Z,22.50
2023-03-24T12:49:27.022Z,22.60
2023-03-24T12:52:15.072Z,22.60
2023-03-24T12:54:55.806Z,22.60
2023-03-24T12:57:28.466Z,22.40
2023-03-24T13:00:22.582Z,22.50
2023-03-24T13:03:06.709Z,22.60
2023-03-24T13:05:43.216Z,22.60
2023-03-24T13:08:23.068Z,22.60
2023-03-24T13:10:54.564Z,22.60
2023-03-24T13:13:32.962Z,22.50
2023-03-24T13:16:30.939Z,22.40
2023-03-24T13:19:00.520Z,22.40
2023-03-24T13:21:29.718Z,22.30
2023-03-24T13:24:05.459Z,22.30
2023-03-24T13:27:01.159Z,22.20
2023-03-24T13:29:52.778Z,22.30
2023-03-24T13:32:36.268Z,22.20
2023-03-24T13:35:18.795Z,22.20
2023-03-24T13:38:00.685Z,22.10
2023-03-24T13:40:32.761Z,22.10
2023-03-24T13:43:18.220Z,22.10
2023-03-24T13:46:00.903Z,22.10
2023-03-24T13:48:44.212Z,22.10
2023-03-24T13:51:18.251Z,22.10
2023-03-24T13:54:13.836Z,22.20
2023-03-24T13:56:52.688Z,22.30
2023-03-24T14:00:07.951Z,22.50
2023-03-24T14:02:51.284Z,22.50
2023-03-24T14:06:04.640Z,22.50
2023-03-24T14:08:43.962Z,22.40
2023-03-24T14:11:49.513Z,22.40
2023-03-24T14:14:18.310Z,22.20
2023-03-24T14:17:06.748Z,22.20
2023-03-24T14:20:02.076Z,22.20
2023-03-24T14:22:35.367Z,22.10
2023-03-24T14:25:17.338Z,22.10
2023-03-24T14:28:07.694Z,22.10
2023-03-24T14:30:38.170Z,22.00
2023-03-24T14:33:06.737Z,22.00
2023-03-24T14:35:37.251Z,21.90
2023-03-24T14:38:27.208Z,21.80
2023-03-24T14:41:06.146Z,21.80
2023-03-24T14:43:42.011Z,21.70
2023-03-24T14:46:21.089Z,21.60
2023-03-24T14:49:33.665Z,21.50
2023-03-24T14:52:12.331Z,21.40
2023-03-24T14:55:20.424Z,21.30
2023-03-24T14:58:02.541Z,21.30
2023-03-24T15:00:57.977Z,21.20
2023-03-24T15:04:11.269Z,21.10
2023-03-24T15:06:47.333Z,21.10
2023-03-24T15:09:18.133Z,21.00
2023-03-24T15:11:48.279Z,21.00
2023-03-24T15:14:26.525Z,20.90
2023-03-24T15:17:16.354Z,20.90
2023-03-24T15:19:43.783Z,20.80
2023-03-24T15:22:13.826Z,20.70
2023-03-24T15:24:48.426Z,20.60
2023-03-24T15:27:23.505Z,20.50
2023-03-24T15:29:59.469Z,20.50
2023-03-24T15:32:31.615Z,20.40
2023-03-24T15:35:05.710Z,20.20
2023-03-24T15:37:40.610Z,20.00
2023-03-24T15:40:31.087Z,19.90
2023-03-24T15:43:02.442Z,19.70
2023-03-24T15:45:33.976Z,19.60
2023-03-24T15:48:24.743Z,19.40
2023-03-24T15:51:11.752Z,19.30
2023-03-24T15:53:58.147Z,19.10
2023-03-24T15:56:26.502Z,18.90
2023-03-24T15:59:07.094Z,18.60
2023-03-24T16:01:36.339Z,18.40
2023-03-24T16:06:48.698Z,17.80
2023-03-24T16:09:21.767Z,17.50
2023-03-24T16:11:49.636Z,17.30
2023-03-24T16:14:24.343Z,17.10
2023-03-24T16:16:57.011Z,17.00
2023-03-24T16:19:25.223Z,16.80
2023-03-24T16:21:52.544Z,16.70
2023-03-24T16:24:19.699Z,16.70
2023-03-24T16:26:46.952Z,16.60
2023-03-24T16:29:14.313Z,16.50
2023-03-24T16:31:41.496Z,16.40
2023-03-24T16:34:08.802Z,16.40
2023-03-24T16:36:36.424Z,16.30
2023-03-24T16:39:13.117Z,16.30
2023-03-24T16:41:40.627Z,16.30
2023-03-24T16:44:08.060Z,16.30
2023-03-24T16:46:36.471Z,16.20
2023-03-24T16:49:07.233Z,16.20
2023-03-24T16:51:35.253Z,16.10
2023-03-24T16:54:03.718Z,16.10
2023-03-24T16:56:31.394Z,16.00
2023-03-24T16:58:59.289Z,15.90
2023-03-24T17:01:39.875Z,15.80
2023-03-24T17:04:13.206Z,15.80
2023-03-24T17:06:49.328Z,15.70
2023-03-24T17:09:18.597Z,15.60
2023-03-24T17:11:57.671Z,15.60
2023-03-24T17:14:25.346Z,15.50
2023-03-24T17:16:53.872Z,15.40
2023-03-24T17:19:24.608Z,15.40
2023-03-24T17:22:03.830Z,15.40
2023-03-24T17:24:36.186Z,15.30
2023-03-24T17:27:16.864Z,15.30
2023-03-24T17:29:46.370Z,15.20
2023-03-24T17:32:14.031Z,15.00
2023-03-24T17:34:46.700Z,15.00
2023-03-24T17:37:14.518Z,14.90
2023-03-24T17:39:42.161Z,14.90
2023-03-24T17:42:10.177Z,14.80
2023-03-24T17:44:39.652Z,14.80
2023-03-24T17:47:07.622Z,14.70
2023-03-24T17:49:35.646Z,14.70
2023-03-24T17:52:03.745Z,14.70
2023-03-24T17:54:33.093Z,14.60
2023-03-24T17:57:05.351Z,14.60
2023-03-24T17:59:34.019Z,14.60
2023-03-24T18:02:03.086Z,14.60
2023-03-24T18:04:33.428Z,14.60
2023-03-24T18:07:02.668Z,14.50
2023-03-24T18:09:35.066Z,14.50
2023-03-24T18:12:03.167Z,14.50
2023-03-24T18:14:32.432Z,14.60
2023-03-24T18:17:04.885Z,14.50
2023-03-24T18:19:33.120Z,14.50
2023-03-24T18:22:01.307Z,14.50
2023-03-24T18:24:32.738Z,14.50
2023-03-24T18:27:04.113Z,14.50
2023-03-24T18:29:33.964Z,14.50
2023-03-24T18:32:02.521Z,14.40
2023-03-24T18:34:30.985Z,14.40
2023-03-24T18:37:00.051Z,14.40
2023-03-24T18:39:28.714Z,14.30
2023-03-24T18:41:57.323Z,14.30
2023-03-24T18:44:26.066Z,14.20
2023-03-24T18:46:55.607Z,14.20
2023-03-24T18:49:24.348Z,14.20
2023-03-24T18:51:54.744Z,14.20
2023-03-24T18:54:26.898Z,14.10
2023-03-24T18:56:58.362Z,14.10
2023-03-24T18:59:29.274Z,14.10
2023-03-24T19:02:00.827Z,14.10
2023-03-24T19:04:29.184Z,14.00
2023-03-24T19:06:58.685Z,14.00
2023-03-24T19:09:29.554Z,14.00
2023-03-24T19:11:58.313Z,14.00
2023-03-24T19:14:28.457Z,13.90
2023-03-24T19:17:00.133Z,13.90
2023-03-24T19:19:33.051Z,13.90
2023-03-24T19:22:02.240Z,13.90
2023-03-24T19:24:31.656Z,13.90
2023-03-24T19:27:01.558Z,13.90
2023-03-24T19:29:31.639Z,13.80
2023-03-24T19:32:01.775Z,13.90
2023-03-24T19:34:31.049Z,13.90
2023-03-24T19:36:59.329Z,13.90
2023-03-24T19:39:28.701Z,13.80
2023-03-24T19:41:58.402Z,13.80
2023-03-24T19:44:26.676Z,13.80
2023-03-24T19:46:55.134Z,13.80
2023-03-24T19:49:23.770Z,13.80
2023-03-24T19:51:53.157Z,13.80
2023-03-24T19:54:22.935Z,13.70
2023-03-24T19:56:51.850Z,13.70
2023-03-24T19:59:20.483Z,13.70
2023-03-24T20:01:49.240Z,13.60
2023-03-24T20:04:25.140Z,13.60
2023-03-24T20:06:55.421Z,13.60
2023-03-24T20:09:23.863Z,13.60
2023-03-24T20:11:54.214Z,13.50
2023-03-24T20:14:22.948Z,13.50
2023-03-24T20:16:50.863Z,13.40
2023-03-24T20:19:20.603Z,13.40
2023-03-24T20:21:49.606Z,13.30
2023-03-24T20:24:20.243Z,13.30
2023-03-24T20:26:52.057Z,13.30
2023-03-24T20:29:20.654Z,13.30
2023-03-24T20:31:50.783Z,13.30
2023-03-24T20:34:22.416Z,13.30
2023-03-24T20:36:53.733Z,13.30
2023-03-24T20:39:27.857Z,13.30
2023-03-24T20:41:56.963Z,13.30
2023-03-24T20:44:26.063Z,13.30
2023-03-24T20:46:57.827Z,13.30
2023-03-24T20:49:28.058Z,13.30
2023-03-24T20:51:57.083Z,13.30
2023-03-24T20:54:25.597Z,13.30
2023-03-24T20:56:54.321Z,13.30
2023-03-24T20:59:23.182Z,13.30
2023-03-24T21:01:51.709Z,13.30
2023-03-24T21:04:20.424Z,13.20
2023-03-24T21:06:48.373Z,13.20
2023-03-24T21:09:17.401Z,13.20
2023-03-24T21:11:45.876Z,13.20
2023-03-24T21:14:14.242Z,13.20
2023-03-24T21:16:42.685Z,13.20
2023-03-24T21:19:13.448Z,13.20
2023-03-24T21:21:42.992Z,13.20
2023-03-24T21:24:13.554Z,13.20
2023-03-24T21:26:41.756Z,13.20
2023-03-24T21:29:12.420Z,13.20
2023-03-24T21:31:41.911Z,13.20
2023-03-24T21:34:09.792Z,13.20
2023-03-24T21:36:38.590Z,13.10
2023-03-24T21:39:12.096Z,13.10
2023-03-24T21:41:39.807Z,13.10
2023-03-24T21:44:09.521Z,13.10
2023-03-24T21:46:37.190Z,13.10
2023-03-24T21:49:05.376Z,13.10
2023-03-24T21:51:34.648Z,13.00
2023-03-24T21:54:04.648Z,13.00
2023-03-24T21:56:33.961Z,13.00
2023-03-24T21:59:01.594Z,12.90
2023-03-24T22:01:29.407Z,13.00
2023-03-24T22:03:58.901Z,12.90
2023-03-24T22:06:29.066Z,13.00
2023-03-24T22:08:58.571Z,12.90
2023-03-24T22:11:26.377Z,12.90
2023-03-24T22:13:53.873Z,12.90
2023-03-24T22:16:21.110Z,12.90
2023-03-24T22:18:48.288Z,12.90
2023-03-24T22:21:15.458Z,12.90
2023-03-24T22:23:43.033Z,12.90
2023-03-24T22:26:14.810Z,12.80
2023-03-24T22:28:42.615Z,12.90
2023-03-24T22:31:16.748Z,12.90
2023-03-24T22:33:44.500Z,12.80
2023-03-24T22:36:12.410Z,12.80
2023-03-24T22:38:40.004Z,12.80
2023-03-24T22:41:11.624Z,12.70
2023-03-24T22:43:41.873Z,12.70
2023-03-24T22:46:10.788Z,12.60
2023-03-24T22:48:41.189Z,12.60
2023-03-24T22:51:09.483Z,12.50
2023-03-24T22:53:36.742Z,12.60
2023-03-24T22:56:06.235Z,12.60
2023-03-24T22:58:35.095Z,12.60
2023-03-24T23:01:03.715Z,12.70
2023-03-24T23:03:30.936Z,12.70
2023-03-24T23:06:03.744Z,12.70
2023-03-24T23:08:35.126Z,12.70
2023-03-24T23:11:02.290Z,12.70
2023-03-24T23:13:30.825Z,12.70
2023-03-24T23:15:58.285Z,12.70
2023-03-24T23:18:25.480Z,12.70
2023-03-24T23:21:07.265Z,12.70
2023-03-24T23:23:35.967Z,12.80
2023-03-24T23:26:05.571Z,12.80
2023-03-24T23:28:35.444Z,12.80
2023-03-24T23:31:02.652Z,12.80
2023-03-24T23:33:29.870Z,12.90
2023-03-24T23:35:58.720Z,12.80
2023-03-24T23:38:26.531Z,12.80
2023-03-24T23:40:53.610Z,12.90
2023-03-24T23:43:21.338Z,12.90
2023-03-24T23:45:48.596Z,12.90
2023-03-24T23:48:15.999Z,13.00
2023-03-24T23:50:46.314Z,13.00
2023-03-24T23:53:13.379Z,13.00
2023-03-24T23:55:41.881Z,13.00
2023-03-24T23:58:09.009Z,13.00
